createdAt,value
2024-05-09T00:00:52.653Z,95279.38
2024-05-09T00:03:22.669Z,95290.16
2024-05-09T00:05:52.593Z,95257.16
2024-05-09T00:08:22.792Z,95270.16
2024-05-09T00:10:52.812Z,95287.28
2024-05-09T00:13:25.424Z,95279.88
2024-05-09T00:15:55.308Z,95279.81
2024-05-09T00:18:25.362Z,95258.31
2024-05-09T00:20:55.440Z,95267.31
2024-05-09T00:23:25.400Z,95266.47
2024-05-09T00:25:55.392Z,95257.09
2024-05-09T00:28:28.238Z,95258.59
2024-05-09T00:30:58.119Z,95239.25
2024-05-09T00:33:28.324Z,95263.25
2024-05-09T00:35:58.433Z,95251.97
2024-05-09T00:38:28.416Z,95261.25
2024-05-09T00:40:58.327Z,95256.56
2024-05-09T00:43:32.749Z,95269.81
2024-05-09T00:46:03.008Z,95271.78
2024-05-09T00:48:33.233Z,95270.91
2024-05-09T00:51:04.579Z,95228.22
2024-05-09T00:53:34.823Z,95263.63
2024-05-09T00:56:07.376Z,95272.19
2024-05-09T00:58:40.589Z,95274.03
2024-05-09T01:01:11.227Z,95275.19
2024-05-09T01:03:41.280Z,95265.47
2024-05-09T01:06:11.303Z,95266.63
2024-05-09T01:08:41.265Z,95269.22
2024-05-09T01:11:11.361Z,95265.28
2024-05-09T01:13:44.979Z,95262.06
2024-05-09T01:16:15.301Z,95265.94
2024-05-09T01:18:45.940Z,95238.22
2024-05-09T01:21:16.145Z,95252.25
2024-05-09T01:23:48.879Z,95264.81
2024-05-09T01:26:18.974Z,95278.53
2024-05-09T01:28:48.954Z,95260.31
2024-05-09T01:31:18.842Z,95274.94
2024-05-09T01:33:48.797Z,95269.94
2024-05-09T01:36:18.825Z,95270.03
2024-05-09T01:38:51.371Z,95272.75
2024-05-09T01:41:21.311Z,95267.09
2024-05-09T01:43:51.280Z,95262.34
2024-05-09T01:46:22.010Z,95255.97
2024-05-09T01:48:51.947Z,95243.25
2024-05-09T01:51:21.968Z,95247.78
2024-05-09T01:53:57.618Z,95260.22
2024-05-09T01:56:27.552Z,95256.28
2024-05-09T01:58:57.505Z,95257.50
2024-05-09T02:01:27.437Z,95256.03
2024-05-09T02:03:57.486Z,95266.50
2024-05-09T02:06:27.465Z,95257.56
2024-05-09T02:09:00.038Z,95267.66
2024-05-09T02:11:30.008Z,95265.81
2024-05-09T02:13:59.941Z,95260.44
2024-05-09T02:16:29.848Z,95273.25
2024-05-09T02:18:59.875Z,95270.59
2024-05-09T02:21:34.159Z,95271.56
2024-05-09T02:24:06.881Z,95266.13
2024-05-09T02:26:36.827Z,95266.94
2024-05-09T02:29:06.706Z,95264.38
2024-05-09T02:31:36.612Z,95270.91
2024-05-09T02:34:06.555Z,95254.13
2024-05-09T02:36:33.867Z,95268.41
2024-05-09T02:39:06.465Z,95265.44
2024-05-09T02:41:33.675Z,95260.00
2024-05-09T02:44:03.795Z,95255.97
2024-05-09T02:46:31.076Z,95267.88
2024-05-09T02:49:01.109Z,95264.66
2024-05-09T02:51:28.449Z,95255.81
2024-05-09T02:53:58.318Z,95252.25
2024-05-09T02:56:28.207Z,95259.06
2024-05-09T02:58:58.381Z,95254.81
2024-05-09T03:01:25.733Z,95250.25
2024-05-09T03:03:55.918Z,95261.34
2024-05-09T03:06:23.204Z,95245.84
2024-05-09T03:08:53.555Z,95256.84
2024-05-09T03:11:21.492Z,95246.72
2024-05-09T03:13:54.684Z,95244.34
2024-05-09T03:16:21.948Z,95248.22
2024-05-09T03:18:51.868Z,95258.09
2024-05-09T03:21:19.200Z,95241.03
2024-05-09T03:23:49.190Z,95252.16
2024-05-09T03:26:18.519Z,95247.97
2024-05-09T03:28:48.691Z,95250.25
2024-05-09T03:31:18.879Z,95241.75
2024-05-09T03:33:48.834Z,95248.38
2024-05-09T03:36:16.272Z,95247.97
2024-05-09T03:38:46.235Z,95247.53
2024-05-09T03:41:16.182Z,95234.25
2024-05-09T03:43:47.174Z,95241.41
2024-05-09T03:46:17.091Z,95232.94
2024-05-09T03:48:47.149Z,95240.81
2024-05-09T03:51:17.185Z,95227.59
2024-05-09T03:53:44.573Z,95239.66
2024-05-09T03:56:14.538Z,95232.16
2024-05-09T03:58:42.159Z,95234.06
2024-05-09T04:01:12.077Z,95242.38
2024-05-09T04:03:39.826Z,95245.97
2024-05-09T04:06:12.536Z,95227.69
2024-05-09T04:08:39.963Z,95229.97
2024-05-09T04:11:10.078Z,95237.84
2024-05-09T04:13:40.084Z,95236.41
2024-05-09T04:16:10.289Z,95238.50
2024-05-09T04:18:40.901Z,95240.50
2024-05-09T04:21:10.905Z,95240.50
2024-05-09T04:23:42.071Z,95240.06
2024-05-09T04:26:09.440Z,95243.50
2024-05-09T04:28:39.333Z,95242.84
2024-05-09T04:31:06.578Z,95245.56
2024-05-09T04:33:36.662Z,95249.88
2024-05-09T04:36:04.451Z,95249.88
2024-05-09T04:38:37.052Z,95254.59
2024-05-09T04:41:04.631Z,95266.25
2024-05-09T04:43:35.385Z,95264.06
2024-05-09T04:46:02.578Z,95261.59
2024-05-09T04:48:32.561Z,95268.31
2024-05-09T04:51:04.648Z,95276.56
2024-05-09T04:53:34.602Z,95274.97
2024-05-09T04:56:04.554Z,95282.66
2024-05-09T04:58:31.854Z,95279.00
2024-05-09T05:01:01.808Z,95281.78
2024-05-09T05:03:29.308Z,95274.59
2024-05-09T05:05:59.447Z,95289.78
2024-05-09T05:08:26.890Z,95283.50
2024-05-09T05:10:59.676Z,95297.56
2024-05-09T05:13:31.621Z,95304.09
2024-05-09T05:16:01.552Z,95300.34
2024-05-09T05:18:29.220Z,95305.94
2024-05-09T05:20:59.943Z,95304.69
2024-05-09T05:23:30.106Z,95298.53
2024-05-09T05:26:00.567Z,95306.47
2024-05-09T05:28:30.471Z,95312.69
2024-05-09T05:30:57.876Z,95297.09
2024-05-09T05:33:28.053Z,95307.25
2024-05-09T05:35:55.906Z,95301.84
2024-05-09T05:38:28.212Z,95309.69
2024-05-09T05:40:56.032Z,95312.69
2024-05-09T05:43:29.708Z,95306.63
2024-05-09T05:45:56.982Z,95310.53
2024-05-09T05:48:27.036Z,95305.19
2024-05-09T05:50:54.474Z,95309.84
2024-05-09T05:53:24.390Z,95314.38
2024-05-09T05:55:51.744Z,95309.59
2024-05-09T05:58:22.598Z,95310.69
2024-05-09T06:00:53.694Z,95318.19
2024-05-09T06:03:23.872Z,95319.19
2024-05-09T06:05:51.516Z,95313.63
2024-05-09T06:08:21.807Z,95315.56
2024-05-09T06:10:49.353Z,95321.47
2024-05-09T06:13:20.558Z,95317.56
2024-05-09T06:15:47.778Z,95317.09
2024-05-09T06:18:20.695Z,95317.09
2024-05-09T06:20:48.179Z,95310.53
2024-05-09T06:23:18.164Z,95318.97
2024-05-09T06:25:45.460Z,95321.63
2024-05-09T06:28:15.388Z,95309.84
2024-05-09T06:30:43.394Z,95310.53
2024-05-09T06:33:16.320Z,95313.41
2024-05-09T06:35:46.989Z,95311.38
2024-05-09T06:38:17.005Z,95312.19
2024-05-09T06:40:44.893Z,95310.13
2024-05-09T06:43:17.578Z,95308.53
2024-05-09T06:45:47.863Z,95308.97
2024-05-09T06:48:21.022Z,95309.69
2024-05-09T06:50:51.639Z,95306.16
2024-05-09T06:53:24.513Z,95307.38
2024-05-09T06:55:51.962Z,95307.38
2024-05-09T06:58:21.867Z,95303.50
2024-05-09T07:00:49.243Z,95309.81
2024-05-09T07:03:19.848Z,95312.06
2024-05-09T07:05:48.999Z,95309.81
2024-05-09T07:08:23.338Z,95315.97
2024-05-09T07:10:50.673Z,95312.44
2024-05-09T07:13:20.740Z,95329.69
2024-05-09T07:15:48.004Z,95327.63
2024-05-09T07:18:20.244Z,95321.13
2024-05-09T07:20:49.600Z,95331.56
2024-05-09T07:23:23.215Z,95330.25
2024-05-09T07:25:50.865Z,95332.97
2024-05-09T07:28:22.204Z,95332.56
2024-05-09T07:30:52.127Z,95333.53
2024-05-09T07:33:22.063Z,95336.34
2024-05-09T07:35:53.506Z,95335.63
2024-05-09T07:38:24.237Z,95335.81
2024-05-09T07:40:54.229Z,95332.19
2024-05-09T07:43:21.517Z,95335.88
2024-05-09T07:45:54.329Z,95337.13
2024-05-09T07:52:46.039Z,95337.06
2024-05-09T07:53:51.323Z,95350.50
2024-05-09T07:56:24.950Z,95351.97
2024-05-09T07:58:53.516Z,95350.44
2024-05-09T08:01:25.872Z,95364.97
2024-05-09T08:03:53.917Z,95349.84
2024-05-09T08:06:24.084Z,95351.50
2024-05-09T08:08:54.140Z,95356.91
2024-05-09T08:11:24.320Z,95348.44
2024-05-09T08:13:51.821Z,95357.63
2024-05-09T08:16:21.916Z,95356.41
2024-05-09T08:18:49.329Z,95366.53
2024-05-09T08:21:19.580Z,95368.31
2024-05-09T08:23:46.791Z,95365.94
2024-05-09T08:26:19.381Z,95380.81
2024-05-09T08:28:46.734Z,95385.00
2024-05-09T08:31:16.834Z,95377.22
2024-05-09T08:33:45.036Z,95374.69
2024-05-09T08:36:15.234Z,95373.63
2024-05-09T08:38:42.435Z,95374.44
2024-05-09T08:41:12.430Z,95373.03
2024-05-09T08:43:44.484Z,95381.41
2024-05-09T08:46:15.899Z,95376.00
2024-05-09T08:48:45.771Z,95376.00
2024-05-09T08:51:17.140Z,95371.47
2024-05-09T08:53:44.775Z,95371.47
2024-05-09T08:56:14.747Z,95366.72
2024-05-09T08:58:45.686Z,95375.22
2024-05-09T09:01:17.286Z,95368.19
2024-05-09T09:03:46.089Z,95366.00
2024-05-09T09:06:18.361Z,95374.41
2024-05-09T09:08:46.185Z,95367.59
2024-05-09T09:11:16.163Z,95370.53
2024-05-09T09:13:46.181Z,95374.50
2024-05-09T09:16:16.474Z,95372.25
2024-05-09T09:18:45.093Z,95370.72
2024-05-09T09:21:15.195Z,95377.22
2024-05-09T09:23:43.489Z,95374.59
2024-05-09T09:26:18.939Z,95375.97
2024-05-09T09:28:49.008Z,95378.88
2024-05-09T09:31:21.621Z,95372.13
2024-05-09T09:33:50.069Z,95377.72
2024-05-09T09:36:20.646Z,95372.38
2024-05-09T09:38:48.512Z,95372.09
2024-05-09T09:41:22.356Z,95372.00
2024-05-09T09:43:54.595Z,95372.84
2024-05-09T09:46:25.271Z,95366.06
2024-05-09T09:48:53.950Z,95363.22
2024-05-09T09:51:25.009Z,95366.69
2024-05-09T09:53:53.328Z,95358.31
2024-05-09T09:56:24.704Z,95361.41
2024-05-09T09:58:57.842Z,95360.03
2024-05-09T10:01:27.858Z,95351.25
2024-05-09T10:03:55.388Z,95351.78
2024-05-09T10:06:26.632Z,95357.84
2024-05-09T10:08:55.024Z,95352.53
2024-05-09T10:11:25.133Z,95349.28
2024-05-09T10:13:57.120Z,95349.19
2024-05-09T10:16:27.618Z,95350.34
2024-05-09T10:18:55.123Z,95359.69
2024-05-09T10:21:25.206Z,95356.22
2024-05-09T10:23:59.511Z,95347.16
2024-05-09T10:26:36.598Z,95348.81
2024-05-09T10:29:14.688Z,95337.69
2024-05-09T10:31:45.933Z,95339.56
2024-05-09T10:34:20.948Z,95335.97
2024-05-09T10:36:56.464Z,95328.97
2024-05-09T10:39:25.562Z,95337.81
2024-05-09T10:41:55.595Z,95337.97
2024-05-09T10:44:25.544Z,95337.13
2024-05-09T10:46:56.433Z,95331.94
2024-05-09T10:49:23.865Z,95334.56
2024-05-09T10:51:53.917Z,95335.66
2024-05-09T10:54:21.190Z,95327.00
2024-05-09T10:56:59.287Z,95326.53
2024-05-09T10:59:33.157Z,95325.50
2024-05-09T11:02:07.919Z,95332.41
2024-05-09T11:04:36.492Z,95318.66
2024-05-09T11:07:10.822Z,95323.94
2024-05-09T11:09:39.210Z,95326.66
2024-05-09T11:12:09.978Z,95329.22
2024-05-09T11:14:39.934Z,95323.94
2024-05-09T11:17:11.189Z,95324.66
2024-05-09T11:19:40.602Z,95329.97
2024-05-09T11:22:15.566Z,95331.09
2024-05-09T11:24:43.076Z,95328.38
2024-05-09T11:27:13.019Z,95323.69
2024-05-09T11:29:44.750Z,95332.97
2024-05-09T11:32:16.645Z,95323.13
2024-05-09T11:34:44.010Z,95325.41
2024-05-09T11:37:15.241Z,95320.28
2024-05-09T11:39:42.619Z,95322.06
2024-05-09T11:42:12.644Z,95311.22
2024-05-09T11:44:42.677Z,95311.22
2024-05-09T11:47:12.592Z,95311.56
2024-05-09T11:49:39.952Z,95312.38
2024-05-09T11:52:11.052Z,95316.66
2024-05-09T11:54:38.551Z,95312.03
2024-05-09T11:57:09.660Z,95314.75
2024-05-09T11:59:36.868Z,95310.91
2024-05-09T12:02:09.952Z,95311.91
2024-05-09T12:04:37.567Z,95307.81
2024-05-09T12:07:11.295Z,95316.66
2024-05-09T12:09:39.457Z,95306.50
2024-05-09T12:12:09.456Z,95311.59
2024-05-09T12:14:36.679Z,95305.69
2024-05-09T12:17:09.641Z,95302.31
2024-05-09T12:19:37.414Z,95311.38
2024-05-09T12:22:07.832Z,95303.59
2024-05-09T12:24:35.188Z,95294.03
2024-05-09T12:27:05.246Z,95303.75
2024-05-09T12:29:34.368Z,95304.19
2024-05-09T12:32:05.526Z,95299.91
2024-05-09T12:34:35.598Z,95290.06
2024-05-09T12:37:05.655Z,95293.53
2024-05-09T12:39:32.984Z,95286.81
2024-05-09T12:42:04.296Z,95295.59
2024-05-09T12:44:31.527Z,95292.31
2024-05-09T12:47:01.477Z,95287.81
2024-05-09T12:49:28.953Z,95290.59
2024-05-09T12:52:01.630Z,95290.97
2024-05-09T12:54:28.932Z,95295.47
2024-05-09T12:57:01.375Z,95299.31
2024-05-09T12:59:28.634Z,95282.09
2024-05-09T13:02:01.289Z,95294.41
2024-05-09T13:04:28.899Z,95285.53
2024-05-09T13:07:03.662Z,95295.69
2024-05-09T13:09:32.277Z,95293.16
2024-05-09T13:12:02.332Z,95288.88
2024-05-09T13:14:29.551Z,95296.66
2024-05-09T13:16:59.686Z,95295.19
2024-05-09T13:19:27.035Z,95294.50
2024-05-09T13:21:56.956Z,95300.00
2024-05-09T13:24:26.863Z,95307.59
2024-05-09T13:26:56.809Z,95304.34
2024-05-09T13:29:25.362Z,95309.66
2024-05-09T13:31:55.263Z,95319.81
2024-05-09T13:34:22.533Z,95318.00
2024-05-09T13:36:52.610Z,95316.25
2024-05-09T13:39:19.986Z,95316.47
2024-05-09T13:41:52.557Z,95320.06
2024-05-09T13:44:19.808Z,95318.69
2024-05-09T13:46:50.170Z,95321.28
2024-05-09T13:49:17.650Z,95326.44
2024-05-09T13:51:47.763Z,95328.16
2024-05-09T13:54:16.718Z,95326.59
2024-05-09T13:56:47.897Z,95325.34
2024-05-09T13:59:20.513Z,95322.25
2024-05-09T14:01:47.850Z,95341.84
2024-05-09T14:04:18.058Z,95330.50
2024-05-09T14:06:45.567Z,95340.91
2024-05-09T14:09:17.250Z,95347.63
2024-05-09T14:11:44.727Z,95292.97
2024-05-09T14:14:14.679Z,95346.84
2024-05-09T14:16:44.931Z,95345.16
2024-05-09T14:19:15.092Z,95340.34
2024-05-09T14:21:42.554Z,95339.13
2024-05-09T14:24:12.418Z,95341.72
2024-05-09T14:26:40.095Z,95304.28
2024-05-09T14:29:10.338Z,95343.91
2024-05-09T14:31:39.424Z,95345.66
2024-05-09T14:34:12.362Z,95355.31
2024-05-09T14:36:39.746Z,95337.28
2024-05-09T14:39:09.750Z,95359.19
2024-05-09T14:41:36.983Z,95348.13
2024-05-09T14:44:07.157Z,95337.81
2024-05-09T14:46:34.495Z,95356.19
2024-05-09T14:49:04.533Z,95365.22
2024-05-09T14:51:34.930Z,95360.66
2024-05-09T14:54:05.049Z,95357.41
2024-05-09T14:56:33.510Z,95360.38
2024-05-09T14:59:03.604Z,95360.06
2024-05-09T15:01:31.154Z,95369.41
2024-05-09T15:04:01.681Z,95365.59
2024-05-09T15:06:29.643Z,95346.56
2024-05-09T15:09:03.978Z,95365.00
2024-05-09T15:11:31.243Z,95365.03
2024-05-09T15:14:01.146Z,95339.78
2024-05-09T15:16:28.686Z,95367.66
2024-05-09T15:18:59.703Z,95336.81
2024-05-09T15:21:27.159Z,95373.28
2024-05-09T15:23:57.127Z,95373.38
2024-05-09T15:26:27.236Z,95377.81
2024-05-09T15:28:57.125Z,95366.81
2024-05-09T15:31:24.473Z,95371.06
2024-05-09T15:33:54.699Z,95372.22
2024-05-09T15:36:22.070Z,95359.41
2024-05-09T15:38:52.408Z,95369.75
2024-05-09T15:41:19.640Z,95382.78
2024-05-09T15:43:52.249Z,95380.69
2024-05-09T15:46:19.635Z,95380.22
2024-05-09T15:48:49.757Z,95382.50
2024-05-09T15:51:17.089Z,95382.28
2024-05-09T15:53:46.953Z,95385.88
2024-05-09T15:56:14.284Z,95386.19
2024-05-09T16:01:33.963Z,95395.09
2024-05-09T16:04:04.380Z,95397.00
2024-05-09T16:06:33.736Z,95394.53
2024-05-09T16:09:03.828Z,95388.03
2024-05-09T16:11:31.202Z,95389.78
2024-05-09T16:14:01.115Z,95387.28
2024-05-09T16:16:28.587Z,95393.69
2024-05-09T16:19:03.898Z,95399.53
2024-05-09T16:21:31.164Z,95397.97
2024-05-09T16:24:02.054Z,95400.47
2024-05-09T16:26:29.442Z,95393.16
2024-05-09T16:28:59.482Z,95395.53
2024-05-09T16:31:27.007Z,95394.69
2024-05-09T16:33:57.581Z,95397.59
2024-05-09T16:36:27.744Z,95397.13
2024-05-09T16:38:57.763Z,95400.88
2024-05-09T16:41:25.186Z,95405.03
2024-05-09T16:43:55.269Z,95399.97
2024-05-09T16:46:23.069Z,95401.53
2024-05-09T16:48:53.502Z,95406.13
2024-05-09T16:51:20.956Z,95405.94
2024-05-09T16:53:53.511Z,95408.19
2024-05-09T16:56:23.861Z,95416.94
2024-05-09T16:58:53.860Z,95410.31
2024-05-09T17:01:21.351Z,95418.47
2024-05-09T17:03:52.369Z,95413.72
2024-05-09T17:06:19.839Z,95415.72
2024-05-09T17:08:49.831Z,95415.81
2024-05-09T17:11:22.602Z,95414.72
2024-05-09T17:13:52.615Z,95419.19
2024-05-09T17:16:23.358Z,95424.13
2024-05-09T17:18:53.515Z,95422.06
2024-05-09T17:21:20.765Z,95426.03
2024-05-09T17:23:54.260Z,95424.13
2024-05-09T17:26:24.306Z,95432.22
2024-05-09T17:28:54.431Z,95428.28
2024-05-09T17:31:21.872Z,95424.31
2024-05-09T17:33:52.109Z,95424.47
2024-05-09T17:36:20.007Z,95424.38
2024-05-09T17:38:50.383Z,95431.56
2024-05-09T17:41:17.627Z,95427.53
2024-05-09T17:43:50.532Z,95436.81
2024-05-09T17:46:17.904Z,95439.53
2024-05-09T17:48:48.007Z,95439.59
2024-05-09T17:51:15.414Z,95445.78
2024-05-09T17:53:45.329Z,95450.53
2024-05-09T17:56:13.075Z,95452.34
2024-05-09T17:58:43.053Z,95446.81
2024-05-09T18:01:13.044Z,95450.78
2024-05-09T18:03:43.718Z,95451.69
2024-05-09T18:06:11.340Z,95451.69
2024-05-09T18:08:41.655Z,95455.03
2024-05-09T18:11:09.906Z,95452.50
2024-05-09T18:13:40.060Z,95456.06
2024-05-09T18:16:07.923Z,95458.94
2024-05-09T18:18:40.969Z,95465.16
2024-05-09T18:21:08.473Z,95466.13
2024-05-09T18:23:38.420Z,95463.19
2024-05-09T18:26:06.103Z,95466.53
2024-05-09T18:28:36.044Z,95480.34
2024-05-09T18:31:03.304Z,95479.56
2024-05-09T18:33:33.522Z,95476.72
2024-05-09T18:36:03.901Z,95483.16
2024-05-09T18:38:33.881Z,95483.81
2024-05-09T18:41:01.295Z,95482.44
2024-05-09T18:43:38.437Z,95492.91
2024-05-09T18:46:12.079Z,95492.59
2024-05-09T18:48:42.219Z,95489.91
2024-05-09T18:51:12.195Z,95493.69
2024-05-09T18:53:43.360Z,95482.63
2024-05-09T18:56:11.849Z,95490.78
2024-05-09T18:58:42.106Z,95497.94
2024-05-09T19:01:12.088Z,95499.53
2024-05-09T19:03:39.659Z,95495.56
2024-05-09T19:06:09.834Z,95508.88
2024-05-09T19:08:40.920Z,95506.38
2024-05-09T19:11:10.832Z,95511.16
2024-05-09T19:13:38.401Z,95514.91
2024-05-09T19:16:09.166Z,95514.91
2024-05-09T19:18:37.744Z,95514.59
2024-05-09T19:21:08.710Z,95526.66
2024-05-09T19:23:38.383Z,95523.56
2024-05-09T19:26:13.740Z,95522.28
2024-05-09T19:28:40.956Z,95522.84
2024-05-09T19:31:11.014Z,95530.44
2024-05-09T19:33:38.648Z,95533.72
2024-05-09T19:36:09.775Z,95529.47
2024-05-09T19:38:37.187Z,95539.13
2024-05-09T19:41:07.397Z,95536.13
2024-05-09T19:43:37.445Z,95537.88
2024-05-09T19:46:07.839Z,95535.69
2024-05-09T19:48:35.687Z,95530.50
2024-05-09T19:51:06.254Z,95540.22
2024-05-09T19:53:33.653Z,95544.22
2024-05-09T19:56:05.800Z,95542.63
2024-05-09T19:58:33.302Z,95541.06
2024-05-09T20:01:06.020Z,95545.19
2024-05-09T20:03:36.964Z,95541.72
2024-05-09T20:06:07.478Z,95545.38
2024-05-09T20:08:36.409Z,95545.91
2024-05-09T20:11:06.415Z,95549.69
2024-05-09T20:13:33.675Z,95551.94
2024-05-09T20:16:06.859Z,95547.06
2024-05-09T20:18:34.450Z,95545.31
2024-05-09T20:21:06.622Z,95542.94
2024-05-09T20:23:33.983Z,95551.19
2024-05-09T20:26:04.061Z,95551.81
2024-05-09T20:28:31.401Z,95552.47
2024-05-09T20:31:06.456Z,95552.63
2024-05-09T20:33:33.816Z,95558.66
2024-05-09T20:36:03.822Z,95552.78
2024-05-09T20:38:31.013Z,95556.41
2024-05-09T20:41:00.987Z,95549.94
2024-05-09T20:43:29.168Z,95549.13
2024-05-09T20:45:59.121Z,95559.28
2024-05-09T20:48:29.115Z,95548.50
2024-05-09T20:50:59.076Z,95554.69
2024-05-09T20:53:26.317Z,95549.63
2024-05-09T20:55:56.515Z,95551.06
2024-05-09T20:58:23.896Z,95545.69
2024-05-09T21:00:54.013Z,95546.44
2024-05-09T21:03:21.438Z,95551.19
2024-05-09T21:05:54.135Z,95543.56
2024-05-09T21:08:22.743Z,95543.91
2024-05-09T21:10:53.347Z,95544.66
2024-05-09T21:13:20.828Z,95543.56
2024-05-09T21:15:51.014Z,95543.38
2024-05-09T21:18:18.422Z,95544.47
2024-05-09T21:20:48.333Z,95541.66
2024-05-09T21:23:18.197Z,95546.72
2024-05-09T21:25:49.934Z,95552.09
2024-05-09T21:28:17.297Z,95546.25
2024-05-09T21:30:47.292Z,95552.97
2024-05-09T21:33:15.309Z,95561.09
2024-05-09T21:35:45.976Z,95550.03
2024-05-09T21:38:14.595Z,95556.19
2024-05-09T21:40:47.613Z,95545.56
2024-05-09T21:43:15.040Z,95556.50
2024-05-09T21:45:46.268Z,95557.09
2024-05-09T21:48:13.898Z,95549.63
2024-05-09T21:50:44.209Z,95540.41
2024-05-09T21:53:12.732Z,95552.28
2024-05-09T21:55:43.369Z,95544.72
2024-05-09T21:58:14.191Z,95548.19
2024-05-09T22:00:46.445Z,95552.00
2024-05-09T22:03:14.457Z,95547.06
2024-05-09T22:05:45.199Z,95546.09
2024-05-09T22:08:12.913Z,95552.28
2024-05-09T22:10:43.158Z,95544.19
2024-05-09T22:13:13.434Z,95539.25
2024-05-09T22:15:43.440Z,95537.53
2024-05-09T22:18:11.587Z,95541.97
2024-05-09T22:20:45.424Z,95537.19
2024-05-09T22:23:13.960Z,95529.09
2024-05-09T22:25:44.089Z,95542.06
2024-05-09T22:28:15.492Z,95541.59
2024-05-09T22:30:47.338Z,95533.63
2024-05-09T22:33:15.663Z,95533.28
2024-05-09T22:35:45.780Z,95532.97
2024-05-09T22:38:13.016Z,95535.66
2024-05-09T22:40:48.021Z,95535.84
2024-05-09T22:43:23.144Z,95533.16
2024-05-09T22:45:55.328Z,95530.47
2024-05-09T22:48:24.227Z,95534.13
2024-05-09T22:50:55.064Z,95523.84
2024-05-09T22:53:23.773Z,95533.38
2024-05-09T22:55:54.179Z,95528.31
2024-05-09T22:58:24.425Z,95523.38
2024-05-09T23:00:54.520Z,95527.19
2024-05-09T23:03:22.849Z,95526.41
2024-05-09T23:05:53.101Z,95522.16
2024-05-09T23:08:20.358Z,95524.84
2024-05-09T23:10:50.256Z,95533.69
2024-05-09T23:13:17.731Z,95531.66
2024-05-09T23:15:50.395Z,95531.19
2024-05-09T23:18:17.890Z,95523.75
2024-05-09T23:20:47.850Z,95526.13
2024-05-09T23:23:15.081Z,95526.00
2024-05-09T23:25:44.997Z,95519.00
2024-05-09T23:28:12.587Z,95521.25
2024-05-09T23:30:42.798Z,95516.47
2024-05-09T23:33:14.193Z,95519.66
2024-05-09T23:35:45.415Z,95512.50
2024-05-09T23:38:13.116Z,95524.25
2024-05-09T23:40:43.737Z,95520.63
2024-05-09T23:43:12.297Z,95516.47
2024-05-09T23:45:43.140Z,95520.16
2024-05-09T23:48:13.335Z,95517.31
2024-05-09T23:50:43.433Z,95521.25
2024-05-09T23:53:11.221Z,95513.75
2024-05-09T23:55:41.381Z,95510.75
2024-05-09T23:58:08.903Z,95512.31
